Time;durP1;ratioP1;P1;durP2;ratioP2;P2;SDS_P1;SDS_P2;PMS_P1;PMS_P2;Temp;Humidity;BMP_temperature;BMP_pressure;BME280_temperature;BME280_humidity;BME280_pressure;Samples;Min_cycle;Max_cycle;Signal;HPM_P1;HPM_P2
2021/05/27 00:02:26;;;;;;;8.18;2.60;;;;;;;8.48;92.03;93146.67;1866625;75;21240;-83
2021/05/27 00:04:53;;;;;;;6.83;3.47;;;;;;;8.51;91.90;93131.59;1833612;76;21060;-79
2021/05/27 00:07:20;;;;;;;3.80;2.27;;;;;;;8.56;91.60;93139.31;1821459;78;20961;-80
2021/05/27 00:09:47;;;;;;;4.78;3.02;;;;;;;8.59;91.09;93139.90;1821108;78;21065;-80
2021/05/27 00:12:13;;;;;;;5.35;1.98;;;;;;;8.53;90.77;93148.22;1821239;78;21012;-80
2021/05/27 00:14:41;;;;;;;2.85;2.65;;;;;;;8.42;90.61;93140.09;1821167;78;21052;-82
2021/05/27 00:17:09;;;;;;;5.87;2.92;;;;;;;8.30;90.88;93146.45;1821035;78;21044;-81
2021/05/27 00:19:37;;;;;;;5.40;2.60;;;;;;;8.26;91.39;93139.09;1821247;78;21005;-83
2021/05/27 00:22:05;;;;;;;3.87;2.90;;;;;;;8.26;91.76;93149.16;1820873;78;21066;-81
2021/05/27 00:24:32;;;;;;;3.58;2.42;;;;;;;8.27;92.11;93149.34;1821360;78;21025;-82
2021/05/27 00:26:58;;;;;;;3.20;2.67;;;;;;;8.27;91.30;93143.38;1821113;78;21064;-81
2021/05/27 00:29:24;;;;;;;5.65;2.27;;;;;;;8.23;91.01;93139.86;1821176;78;21598;-81
2021/05/27 00:31:52;;;;;;;4.70;2.72;;;;;;;8.17;91.07;93134.66;1821049;78;21052;-81
2021/05/27 00:34:18;;;;;;;2.90;2.65;;;;;;;8.16;91.37;93130.41;1820653;77;21028;-80
2021/05/27 00:36:44;;;;;;;3.33;2.45;;;;;;;8.19;91.68;93118.01;1821074;78;21027;-82
2021/05/27 00:39:11;;;;;;;6.33;3.30;;;;;;;8.23;91.68;93130.38;1820967;78;21622;-81
2021/05/27 00:41:38;;;;;;;4.10;3.30;;;;;;;8.30;91.94;93123.43;1819995;77;21060;-83
2021/05/27 00:44:26;;;;;;;3.10;2.50;;;;;;;8.35;91.83;93133.31;1820989;78;20989;-80
2021/05/27 00:46:54;;;;;;;7.00;3.00;;;;;;;8.37;91.57;93130.20;1821170;78;21075;-80
2021/05/27 00:49:21;;;;;;;7.53;3.83;;;;;;;8.38;91.88;93129.83;1820473;78;21725;-81
2021/05/27 00:51:48;;;;;;;6.22;3.85;;;;;;;8.42;91.90;93137.38;1820044;78;21159;-81
2021/05/27 00:54:14;;;;;;;5.95;4.03;;;;;;;8.44;92.01;93139.13;1821093;78;21024;-82
2021/05/27 00:56:42;;;;;;;5.78;3.45;;;;;;;8.43;91.70;93132.17;1820662;78;21056;-80
2021/05/27 00:59:09;;;;;;;5.90;3.35;;;;;;;8.42;91.72;93140.67;1820920;77;21025;-82
2021/05/27 01:01:35;;;;;;;3.17;2.87;;;;;;;8.39;91.51;93138.77;1820823;78;21056;-81
2021/05/27 01:04:02;;;;;;;3.25;2.85;;;;;;;8.37;91.52;93139.69;1820916;78;21107;-81
2021/05/27 01:06:31;;;;;;;3.87;2.95;;;;;;;8.34;91.56;93138.52;1820847;78;21036;-81
2021/05/27 01:08:57;;;;;;;6.33;3.95;;;;;;;8.35;91.80;93144.70;1788626;79;21052;-82
2021/05/27 01:11:24;;;;;;;7.90;3.80;;;;;;;8.40;92.09;93138.36;1809220;79;21060;-80
2021/05/27 01:13:51;;;;;;;5.58;4.53;;;;;;;8.48;92.33;93140.48;1809762;79;21036;-81
2021/05/27 01:16:21;;;;;;;8.03;3.67;;;;;;;8.54;92.50;93135.44;1833458;75;21008;-82
2021/05/27 01:18:49;;;;;;;6.58;3.55;;;;;;;8.59;92.58;93143.19;1886413;76;20987;-83
2021/05/27 01:21:17;;;;;;;3.95;3.22;;;;;;;8.58;91.48;93139.72;1852690;77;21086;-82
2021/05/27 01:23:44;;;;;;;4.10;3.30;;;;;;;8.59;91.10;93140.48;1852625;77;21090;-80
2021/05/27 01:26:12;;;;;;;4.60;3.70;;;;;;;8.58;91.05;93137.59;1849652;77;21656;-82
2021/05/27 01:28:41;;;;;;;5.00;2.80;;;;;;;8.55;91.08;93139.13;1841546;77;21573;-82
2021/05/27 01:31:09;;;;;;;5.03;2.62;;;;;;;8.49;90.56;93133.31;1841504;77;21649;-81
2021/05/27 01:33:37;;;;;;;3.47;2.90;;;;;;;8.41;90.16;93135.06;1841676;77;21016;-79
2021/05/27 01:36:05;;;;;;;3.35;2.30;;;;;;;8.21;90.36;93135.43;1889480;74;21095;-78
2021/05/27 01:38:32;;;;;;;3.30;2.92;;;;;;;8.08;90.78;93139.66;1822576;77;21450;-80
2021/05/27 01:41:01;;;;;;;4.95;3.22;;;;;;;7.92;91.69;93133.27;1869281;76;21027;-81
2021/05/27 01:43:29;;;;;;;4.90;2.50;;;;;;;7.83;92.49;93130.17;1863969;76;21586;-81
2021/05/27 01:45:56;;;;;;;5.33;2.80;;;;;;;7.81;93.42;93130.35;1814577;76;20993;-82
2021/05/27 01:48:23;;;;;;;4.30;2.72;;;;;;;7.88;93.94;93130.37;1876668;76;21122;-80
2021/05/27 01:50:50;;;;;;;3.10;2.70;;;;;;;7.91;94.02;93130.38;1812840;76;21589;-80
2021/05/27 01:53:18;;;;;;;5.83;2.90;;;;;;;7.94;94.07;93128.25;1801545;79;21092;-80
2021/05/27 01:55:47;;;;;;;3.85;2.30;;;;;;;7.91;93.88;93129.60;1800319;79;21664;-80
2021/05/27 01:58:15;;;;;;;4.30;2.90;;;;;;;7.83;94.08;93120.70;1801657;79;22496;-81
2021/05/27 02:00:43;;;;;;;5.62;2.95;;;;;;;7.77;94.15;93127.05;1800971;79;21637;-81
2021/05/27 02:03:11;;;;;;;2.72;2.40;;;;;;;7.72;94.77;93128.03;1801397;79;21053;-80
2021/05/27 02:05:38;;;;;;;3.47;2.58;;;;;;;7.72;95.02;93128.80;1854428;75;21040;-81
2021/05/27 02:08:05;;;;;;;5.90;2.90;;;;;;;7.71;94.69;93129.96;1835310;76;21767;-80
2021/05/27 02:10:35;;;;;;;6.00;2.80;;;;;;;7.63;94.76;93128.38;1793803;79;21069;-79
2021/05/27 02:13:03;;;;;;;3.02;2.72;;;;;;;7.57;95.07;93131.86;1795568;79;21107;-80
2021/05/27 02:15:30;;;;;;;3.42;2.85;;;;;;;7.52;95.38;93125.66;1795590;79;21105;-80
2021/05/27 02:17:57;;;;;;;4.15;2.50;;;;;;;7.52;95.86;93129.72;1794328;78;21203;-81
2021/05/27 02:20:23;;;;;;;3.45;2.50;;;;;;;7.59;96.04;93125.47;1807514;78;21112;-80
2021/05/27 02:22:50;;;;;;;3.27;2.70;;;;;;;7.65;95.87;93124.72;1842807;76;20948;-81
2021/05/27 02:25:37;;;;;;;4.67;2.60;;;;;;;7.74;95.89;93122.41;1865290;76;21269;-81
2021/05/27 02:28:04;;;;;;;3.10;2.62;;;;;;;7.86;95.91;93116.43;1818847;78;21589;-81
2021/05/27 02:30:32;;;;;;;6.05;2.95;;;;;;;7.95;95.63;93119.55;1818907;78;20929;-80
2021/05/27 02:32:59;;;;;;;3.70;2.95;;;;;;;8.02;95.53;93123.04;1818204;78;20965;-78
2021/05/27 02:35:27;;;;;;;2.98;2.77;;;;;;;8.11;95.64;93118.59;1818559;78;21052;-80
2021/05/27 02:37:54;;;;;;;3.72;3.35;;;;;;;8.13;96.27;93111.45;1818454;78;21845;-80
2021/05/27 02:40:22;;;;;;;4.80;3.20;;;;;;;8.13;96.46;93114.16;1818519;78;21052;-80
2021/05/27 02:42:49;;;;;;;3.00;2.80;;;;;;;8.14;96.07;93112.98;1818219;78;21047;-80
2021/05/27 02:45:18;;;;;;;2.77;2.55;;;;;;;8.19;95.71;93124.20;1817246;78;21362;-80
2021/05/27 02:47:46;;;;;;;3.42;2.40;;;;;;;8.19;94.98;93120.13;1817313;78;21040;-80
2021/05/27 02:50:14;;;;;;;3.47;2.67;;;;;;;8.22;94.60;93122.66;1818380;78;21075;-81
2021/05/27 02:52:40;;;;;;;5.05;2.33;;;;;;;8.26;94.11;93118.02;1817876;78;21033;-81
2021/05/27 02:55:10;;;;;;;2.72;2.00;;;;;;;8.31;93.67;93128.45;1818250;78;21032;-82
2021/05/27 02:57:37;;;;;;;3.92;2.58;;;;;;;8.30;93.10;93128.84;1818551;78;21091;-81
2021/05/27 03:00:06;;;;;;;4.60;2.77;;;;;;;8.28;92.47;93135.44;1818409;78;20996;-81
2021/05/27 03:02:37;;;;;;;2.27;2.00;;;;;;;8.28;91.95;93133.31;1787322;77;21069;-79
2021/05/27 03:05:05;;;;;;;3.50;3.20;;;;;;;8.25;91.03;93134.08;1853775;77;21545;-81
2021/05/27 03:07:33;;;;;;;3.65;3.35;;;;;;;8.11;90.63;93134.84;1847120;75;21608;-82
2021/05/27 03:10:02;;;;;;;3.30;2.65;;;;;;;8.00;91.39;93134.82;1816914;78;21158;-78
2021/05/27 03:12:30;;;;;;;5.78;5.08;;;;;;;7.98;92.62;93138.51;1818545;78;21102;-82
2021/05/27 03:14:57;;;;;;;4.00;3.60;;;;;;;7.96;93.50;93137.34;1843645;77;21700;-80
2021/05/27 03:17:25;;;;;;;3.40;3.02;;;;;;;7.97;94.14;93139.67;1852594;75;21115;-80
2021/05/27 03:19:53;;;;;;;4.12;3.67;;;;;;;8.01;94.34;93143.72;1823676;78;21699;-80
2021/05/27 03:22:23;;;;;;;4.12;3.72;;;;;;;8.03;94.28;93137.34;1835573;78;21586;-82
2021/05/27 03:24:51;;;;;;;5.20;3.60;;;;;;;8.09;94.80;93137.17;1885489;76;21865;-81
2021/05/27 03:27:17;;;;;;;4.40;2.90;;;;;;;8.14;94.98;93142.20;1831877;76;21091;-80
2021/05/27 03:29:44;;;;;;;3.77;3.02;;;;;;;8.16;94.87;93142.59;1817157;78;21021;-80
2021/05/27 03:32:11;;;;;;;4.58;3.30;;;;;;;8.16;94.76;93142.59;1817784;78;21052;-81
2021/05/27 03:34:38;;;;;;;6.60;2.70;;;;;;;8.16;95.24;93137.18;1817915;78;21037;-80
2021/05/27 03:37:06;;;;;;;3.00;2.80;;;;;;;8.21;95.40;93145.50;1818504;78;21049;-82
2021/05/27 03:39:33;;;;;;;4.97;3.00;;;;;;;8.30;95.07;93145.88;1818183;78;21052;-81
2021/05/27 03:42:00;;;;;;;3.05;2.20;;;;;;;8.32;94.67;93144.15;1818046;78;21588;-83
2021/05/27 03:44:26;;;;;;;5.33;2.83;;;;;;;8.31;93.64;93151.47;1817445;78;21032;-82
2021/05/27 03:46:54;;;;;;;2.67;1.70;;;;;;;8.28;92.80;93144.91;1818379;78;21080;-81
2021/05/27 03:49:23;;;;;;;2.97;2.57;;;;;;;8.15;92.14;93141.02;1818122;78;21052;-81
2021/05/27 03:51:52;;;;;;;4.33;2.60;;;;;;;8.02;93.11;93137.16;1817944;78;21242;-82
2021/05/27 03:54:19;;;;;;;4.42;2.98;;;;;;;7.96;94.06;93137.34;1818033;78;21104;-81
2021/05/27 03:56:47;;;;;;;5.78;2.90;;;;;;;7.98;94.36;93136.38;1826388;76;21419;-80
2021/05/27 04:02:00;;;;;;;3.85;2.65;;;;;;;8.07;94.29;93132.70;1852947;77;21123;-80
2021/05/27 04:09:34;;;;;;;3.47;2.72;;;;;;;8.27;95.09;93135.80;1819598;78;21047;-80
2021/05/27 04:15:20;;;;;;;9.10;7.87;;;;;;;8.33;95.22;93126.14;1823496;77;21214;-80
2021/05/27 04:17:18;;;;;;;11.93;6.97;;;;;;;8.28;95.35;93121.13;1812518;78;21800;-82
2021/05/27 04:19:45;;;;;;;4.45;3.95;;;;;;;8.32;95.09;93119.77;1786517;77;21088;-82
2021/05/27 04:22:11;;;;;;;3.42;2.90;;;;;;;8.38;95.48;93116.29;1810481;78;21044;-80
2021/05/27 04:24:38;;;;;;;4.20;3.17;;;;;;;8.51;95.72;93113.39;1827571;78;21490;-81
2021/05/27 04:27:05;;;;;;;5.85;2.98;;;;;;;8.61;95.51;93119.17;1837588;77;21629;-80
2021/05/27 04:29:31;;;;;;;3.20;2.90;;;;;;;8.71;95.53;93118.39;1828921;77;21447;-81
2021/05/27 04:31:58;;;;;;;27.95;3.95;;;;;;;8.82;95.63;93117.78;1798387;79;20957;-81
2021/05/27 04:34:29;;;;;;;3.22;2.42;;;;;;;8.91;95.33;93119.52;1764637;80;21075;-80
2021/05/27 04:36:55;;;;;;;2.90;2.67;;;;;;;8.96;94.93;93123.77;1827087;78;21074;-80
2021/05/27 04:39:22;;;;;;;4.37;2.80;;;;;;;9.02;94.75;93124.89;1836284;77;21068;-81
2021/05/27 04:41:48;;;;;;;5.70;3.72;;;;;;;9.04;94.48;93121.22;1842931;76;21804;-82
2021/05/27 04:44:15;;;;;;;4.72;3.92;;;;;;;9.13;95.28;93126.99;1847702;77;21136;-80
2021/05/27 04:46:41;;;;;;;3.30;3.02;;;;;;;9.24;94.89;93129.09;1810134;79;21029;-81
2021/05/27 04:49:08;;;;;;;4.03;2.75;;;;;;;9.27;93.77;93135.67;1879594;76;21075;-81
2021/05/27 04:51:35;;;;;;;3.25;2.95;;;;;;;9.41;94.77;93138.34;1862564;76;21062;-82
2021/05/27 04:54:03;;;;;;;3.50;2.30;;;;;;;9.61;93.68;93137.86;1851922;77;21079;-80
2021/05/27 04:56:29;;;;;;;6.17;3.85;;;;;;;9.78;92.83;93135.65;1851695;77;21107;-82
2021/05/27 04:58:56;;;;;;;3.08;2.08;;;;;;;9.96;92.09;93140.37;1852969;77;21569;-84
2021/05/27 05:01:23;;;;;;;3.62;2.00;;;;;;;10.13;92.01;93143.39;1813496;77;21152;-82
2021/05/27 05:03:49;;;;;;;4.05;3.33;;;;;;;10.30;91.10;93139.78;1867149;76;21067;-83
2021/05/27 05:06:16;;;;;;;3.30;2.33;;;;;;;10.52;90.59;93139.63;1867409;76;22065;-81
2021/05/27 05:08:44;;;;;;;3.00;2.80;;;;;;;10.76;89.84;93140.02;1851506;77;21071;-80
2021/05/27 05:11:13;;;;;;;2.85;2.65;;;;;;;11.04;89.16;93136.23;1848362;77;21060;-80
2021/05/27 05:13:43;;;;;;;5.22;2.45;;;;;;;11.34;87.71;93136.88;1811797;79;21160;-81
2021/05/27 05:16:10;;;;;;;3.42;2.52;;;;;;;11.62;86.26;93143.16;1874738;76;21087;-82
2021/05/27 05:18:38;;;;;;;3.95;2.00;;;;;;;12.01;84.74;93136.48;1864062;76;21070;-83
2021/05/27 05:21:05;;;;;;;1.80;1.70;;;;;;;12.59;83.28;93139.88;1851010;77;21463;-82
2021/05/27 05:23:33;;;;;;;2.10;1.90;;;;;;;13.26;80.86;93137.97;1851444;77;21067;-81
2021/05/27 05:26:00;;;;;;;2.40;2.20;;;;;;;13.95;77.31;93132.69;1852391;77;21071;-82
2021/05/27 05:28:26;;;;;;;3.20;2.10;;;;;;;14.51;74.51;93137.34;1852135;77;21087;-82
2021/05/27 05:30:53;;;;;;;2.83;1.87;;;;;;;15.09;71.89;93132.03;1824426;77;21080;-82
2021/05/27 05:33:19;;;;;;;2.15;1.70;;;;;;;15.50;70.16;93129.97;1846029;76;21055;-82
2021/05/27 05:35:46;;;;;;;2.35;1.82;;;;;;;15.70;69.08;93124.95;1877367;76;21027;-83
2021/05/27 05:38:13;;;;;;;;;;;;;;;;;;;;;
2021/05/27 05:40:40;;;;;;;2.50;2.30;;;;;;;15.86;69.17;93119.39;1884305;76;21055;-81
2021/05/27 05:43:07;;;;;;;4.50;2.15;;;;;;;15.89;67.94;93124.01;1803734;75;21130;-81
2021/05/27 05:45:35;;;;;;;3.02;2.27;;;;;;;15.85;67.35;93112.38;1798061;79;21087;-82
2021/05/27 05:48:01;;;;;;;2.22;2.00;;;;;;;15.85;66.85;93116.48;1813330;79;21005;-80
2021/05/27 05:55:47;;;;;;;8.85;3.77;;;;;;;16.40;64.65;93117.20;1811528;79;21384;-81
2021/05/27 05:58:14;;;;;;;3.45;3.12;;;;;;;16.83;64.22;93119.99;1844691;77;21057;-81
2021/05/27 06:00:41;;;;;;;3.15;2.67;;;;;;;17.37;61.93;93118.19;1811977;77;21323;-81
2021/05/27 06:03:07;;;;;;;3.20;2.90;;;;;;;17.84;60.35;93111.86;1775686;80;21120;-83
2021/05/27 06:05:35;;;;;;;4.10;3.00;;;;;;;18.35;59.34;93113.65;1767418;77;21555;-83
2021/05/27 06:08:21;;;;;;;3.05;2.80;;;;;;;18.93;57.89;93106.70;1827448;78;21095;-84
2021/05/27 06:10:47;;;;;;;3.42;3.00;;;;;;;19.33;56.66;93106.61;1823949;78;21189;-82
2021/05/27 06:13:14;;;;;;;3.62;3.25;;;;;;;19.65;56.85;93103.11;1823897;78;21055;-84
2021/05/27 06:15:42;;;;;;;7.67;3.50;;;;;;;19.89;54.05;93101.23;1846814;76;21656;-81
2021/05/27 06:18:09;;;;;;;5.45;2.37;;;;;;;20.11;53.09;93101.66;1829540;78;21019;-81
2021/05/27 06:20:38;;;;;;;3.98;2.95;;;;;;;20.45;54.00;93098.33;1827272;78;21792;-84
2021/05/27 06:23:06;;;;;;;2.85;2.50;;;;;;;20.75;52.61;93098.69;1783265;80;21120;-83
2021/05/27 06:25:34;;;;;;;5.00;3.10;;;;;;;20.91;52.15;93100.91;1782917;80;21135;-81
2021/05/27 06:28:00;;;;;;;3.55;2.22;;;;;;;20.92;51.52;93095.55;1783043;80;21183;-83
2021/05/27 06:30:29;;;;;;;10.18;2.10;;;;;;;20.88;50.37;93095.72;1783181;80;21112;-83
2021/05/27 06:32:55;;;;;;;1.87;1.77;;;;;;;20.82;50.49;93095.59;1782689;80;22215;-83
2021/05/27 06:35:22;;;;;;;1.98;1.87;;;;;;;20.77;50.34;93090.70;1783071;80;21108;-83
2021/05/27 06:37:49;;;;;;;3.55;1.90;;;;;;;20.67;49.81;93098.13;1783621;80;21005;-84
2021/05/27 06:40:22;;;;;;;2.65;1.80;;;;;;;20.68;49.64;93093.50;1784355;80;21120;-80
2021/05/27 06:42:49;;;;;;;2.33;2.02;;;;;;;20.64;48.33;93094.91;1782876;80;21140;-84
2021/05/27 06:45:17;;;;;;;2.85;2.00;;;;;;;20.59;49.13;93090.17;1783341;80;21084;-85
2021/05/27 06:47:46;;;;;;;1.65;1.55;;;;;;;20.57;48.70;93088.52;1784159;80;21192;-82
2021/05/27 06:50:13;;;;;;;3.20;1.40;;;;;;;20.52;47.96;93085.60;1785388;80;21171;-82
2021/05/27 06:52:40;;;;;;;1.42;1.32;;;;;;;20.55;48.12;93091.58;1784899;80;21108;-81
2021/05/27 06:55:08;;;;;;;2.17;1.47;;;;;;;20.71;48.36;93084.91;1784501;80;21104;-83
2021/05/27 06:57:35;;;;;;;2.12;1.92;;;;;;;20.79;47.48;93079.94;1785125;80;21610;-82
2021/05/27 07:00:04;;;;;;;3.37;1.82;;;;;;;20.79;46.39;93079.17;1785105;80;21639;-85
2021/05/27 07:02:31;;;;;;;2.02;1.40;;;;;;;20.73;45.92;93076.92;1785015;80;21139;-82
2021/05/27 07:04:57;;;;;;;1.37;1.25;;;;;;;20.76;46.13;93071.23;1785193;80;21657;-85
2021/05/27 07:07:24;;;;;;;2.80;1.50;;;;;;;20.76;46.20;93069.06;1783889;80;21070;-84
2021/05/27 07:09:50;;;;;;;2.47;1.80;;;;;;;20.71;46.19;93068.33;1784311;80;21160;-83
2021/05/27 07:12:18;;;;;;;1.75;1.47;;;;;;;20.58;46.45;93065.17;1784361;80;23029;-83
2021/05/27 07:14:45;;;;;;;1.95;1.62;;;;;;;20.45;46.96;93065.95;1783601;80;22248;-82
2021/05/27 07:17:12;;;;;;;4.30;1.72;;;;;;;20.36;48.37;93066.00;1783358;80;21149;-84
2021/05/27 07:19:39;;;;;;;1.77;1.20;;;;;;;20.33;47.42;93059.41;1783500;80;21124;-83
2021/05/27 07:22:05;;;;;;;3.37;1.40;;;;;;;20.23;45.97;93053.00;1783886;80;21707;-85
2021/05/27 07:24:33;;;;;;;1.60;1.50;;;;;;;20.22;45.86;93057.77;1782713;80;21133;-82
2021/05/27 07:26:59;;;;;;;1.57;1.35;;;;;;;20.18;46.39;93056.41;1782131;80;21092;-82
2021/05/27 07:29:25;;;;;;;0.90;0.82;;;;;;;20.04;47.66;93060.58;1783208;80;21181;-81
2021/05/27 07:31:52;;;;;;;1.60;1.27;;;;;;;20.07;43.88;93061.03;1782825;80;21113;-82
2021/05/27 07:34:19;;;;;;;1.62;1.05;;;;;;;20.21;43.27;93054.86;1783226;80;21704;-81
2021/05/27 07:36:47;;;;;;;3.33;3.00;;;;;;;20.44;41.55;93053.39;1783588;80;21085;-79
2021/05/27 07:39:14;;;;;;;1.80;1.67;;;;;;;20.59;42.39;93051.50;1782968;80;21585;-84
2021/05/27 07:41:40;;;;;;;3.67;2.08;;;;;;;20.72;41.92;93049.89;1783063;80;21096;-83
2021/05/27 07:44:07;;;;;;;4.72;2.33;;;;;;;20.91;43.16;93049.19;1783946;80;21124;-79
2021/05/27 07:46:33;;;;;;;3.00;1.45;;;;;;;21.09;42.40;93049.67;1783692;80;21140;-81
2021/05/27 07:49:00;;;;;;;3.90;1.50;;;;;;;21.05;38.93;93052.61;1782448;80;21112;-82
2021/05/27 07:51:26;;;;;;;2.02;1.00;;;;;;;20.87;38.80;93058.25;1784090;80;21131;-80
2021/05/27 07:53:53;;;;;;;1.57;0.90;;;;;;;20.74;40.19;93050.82;1784131;80;21132;-81
2021/05/27 07:56:20;;;;;;;2.85;1.30;;;;;;;20.68;39.74;93050.68;1782382;80;21081;-80
2021/05/27 07:58:48;;;;;;;1.17;1.07;;;;;;;20.57;41.37;93042.94;1783819;80;21113;-79
2021/05/27 08:01:15;;;;;;;1.62;1.20;;;;;;;20.47;43.15;93050.31;1783088;80;21349;-79
2021/05/27 08:03:42;;;;;;;8.83;3.17;;;;;;;20.32;40.08;93050.23;1783066;80;21112;-82
2021/05/27 08:06:08;;;;;;;0.98;0.90;;;;;;;20.00;41.07;93044.80;1783926;80;21120;-82
2021/05/27 08:08:35;;;;;;;1.57;1.30;;;;;;;19.74;42.42;93041.64;1783672;80;21112;-84
2021/05/27 08:11:02;;;;;;;1.55;1.35;;;;;;;19.59;42.78;93045.00;1784616;80;21170;-79
2021/05/27 08:13:29;;;;;;;3.27;1.37;;;;;;;19.50;43.65;93045.02;1782982;80;21172;-81
2021/05/27 08:15:57;;;;;;;2.02;1.40;;;;;;;19.50;41.79;93038.75;1784816;80;21097;-83
2021/05/27 08:18:25;;;;;;;2.83;1.20;;;;;;;19.51;43.11;93041.65;1784157;80;21132;-82
2021/05/27 08:20:53;;;;;;;2.52;1.22;;;;;;;19.55;43.82;93034.74;1783723;80;21618;-85
2021/05/27 08:23:20;;;;;;;3.17;1.30;;;;;;;19.62;43.52;93033.08;1784640;80;21057;-82
2021/05/27 08:25:46;;;;;;;3.75;1.45;;;;;;;19.70;43.14;93039.66;1784353;80;21128;-81
2021/05/27 08:28:13;;;;;;;1.30;1.20;;;;;;;19.74;42.95;93037.50;1784591;80;21087;-81
2021/05/27 08:30:40;;;;;;;2.08;1.22;;;;;;;19.79;43.58;93041.80;1784805;80;21049;-83
2021/05/27 08:33:06;;;;;;;2.45;1.47;;;;;;;19.90;42.63;93030.28;1785690;80;21077;-82
2021/05/27 08:35:32;;;;;;;1.37;1.27;;;;;;;20.05;42.06;93034.53;1784108;80;21958;-83
2021/05/27 08:37:59;;;;;;;1.55;1.45;;;;;;;20.10;43.12;93036.66;1783824;80;21116;-82
2021/05/27 08:40:25;;;;;;;1.72;1.35;;;;;;;20.03;42.69;93034.98;1785528;80;21052;-80
2021/05/27 08:42:52;;;;;;;1.45;1.07;;;;;;;19.87;41.45;93036.72;1784890;80;21172;-84
2021/05/27 08:45:20;;;;;;;1.50;1.40;;;;;;;19.71;40.90;93030.16;1784481;80;21720;-82
2021/05/27 08:47:46;;;;;;;1.20;1.10;;;;;;;19.60;41.81;93032.00;1762627;80;21831;-82
2021/05/27 08:50:13;;;;;;;3.37;1.72;;;;;;;19.45;39.74;93026.35;1783971;80;21112;-82
2021/05/27 08:52:40;;;;;;;1.80;1.40;;;;;;;19.27;39.81;93017.47;1784303;80;21136;-82
2021/05/27 08:55:08;;;;;;;2.00;1.50;;;;;;;19.16;40.96;93023.45;1783774;80;21112;-81
2021/05/27 08:57:35;;;;;;;7.12;1.47;;;;;;;19.16;41.14;93022.06;1783834;80;21068;-82
2021/05/27 09:00:06;;;;;;;3.27;2.12;;;;;;;19.15;40.61;93019.16;1758917;80;21807;-84
2021/05/27 09:02:54;;;;;;;15.72;2.58;;;;;;;19.23;41.41;93021.00;1783106;80;21382;-80
2021/05/27 09:05:21;;;;;;;1.57;1.40;;;;;;;19.39;41.75;93016.54;1783050;80;21109;-83
2021/05/27 09:07:48;;;;;;;2.98;1.32;;;;;;;19.56;39.89;93012.09;1783691;80;21020;-84
2021/05/27 09:10:14;;;;;;;2.33;1.10;;;;;;;19.66;40.25;93009.48;1783239;80;21116;-85
2021/05/27 09:12:43;;;;;;;1.90;1.37;;;;;;;19.72;40.33;92999.98;1783950;80;21104;-80
2021/05/27 09:15:21;;;;;;;1.45;1.30;;;;;;;19.71;38.60;92994.30;1784287;80;21155;-85
2021/05/27 09:17:52;;;;;;;4.45;1.60;;;;;;;19.56;39.76;93002.45;1784005;80;21178;-82
2021/05/27 09:20:26;;;;;;;1.50;1.40;;;;;;;19.41;41.54;93005.83;1783770;80;21104;-82
2021/05/27 09:23:18;;;;;;;3.30;1.50;;;;;;;19.25;41.33;93008.89;1784240;80;21108;-83
2021/05/27 09:25:50;;;;;;;2.58;1.12;;;;;;;19.08;41.64;93013.95;1783846;80;21124;-83
2021/05/27 09:28:27;;;;;;;5.42;3.58;;;;;;;18.91;41.75;93007.97;1784154;80;21422;-82
2021/05/27 09:30:58;;;;;;;3.58;1.52;;;;;;;18.81;42.77;93013.95;1784939;80;21049;-83
2021/05/27 09:33:38;;;;;;;4.53;1.85;;;;;;;18.77;42.81;93014.09;1782378;80;21232;-83
2021/05/27 09:36:14;;;;;;;2.37;1.60;;;;;;;18.80;43.69;93004.89;1784860;80;21602;-83
2021/05/27 09:38:50;;;;;;;1.95;1.45;;;;;;;18.89;43.53;93006.91;1784152;80;21167;-84
2021/05/27 09:41:30;;;;;;;4.15;1.27;;;;;;;18.93;42.87;93002.02;1784662;80;21622;-81
2021/05/27 09:44:12;;;;;;;2.33;1.30;;;;;;;19.07;44.91;93007.52;1785834;80;21638;-82
2021/05/27 09:46:52;;;;;;;3.92;1.50;;;;;;;19.29;40.94;92999.84;1785196;80;21073;-80
2021/05/27 09:49:23;;;;;;;1.20;1.10;;;;;;;19.46;42.03;92990.66;1785009;80;21033;-82
2021/05/27 09:51:47;;;;;;;2.25;1.10;;;;;;;19.63;41.08;92980.06;1784454;80;21103;-82
2021/05/27 09:54:13;;;;;;;3.75;2.42;;;;;;;19.77;40.90;92982.17;1783864;80;21132;-83
2021/05/27 09:56:42;;;;;;;3.37;3.08;;;;;;;19.89;42.91;92990.86;1784831;80;21728;-85
2021/05/27 09:59:12;;;;;;;5.65;1.90;;;;;;;19.92;41.15;92985.66;1784711;80;21044;-84
2021/05/27 10:01:40;;;;;;;2.55;1.47;;;;;;;19.82;38.84;92984.33;1784559;80;21096;-86
2021/05/27 10:04:14;;;;;;;3.58;1.72;;;;;;;19.75;38.16;92971.48;1784522;80;21120;-81
2021/05/27 10:06:41;;;;;;;5.70;3.62;;;;;;;19.77;39.83;92971.77;1785016;80;21096;-85
2021/05/27 10:09:10;;;;;;;19.25;3.58;;;;;;;19.89;41.50;92965.27;1785770;80;20910;-83
2021/05/27 10:11:39;;;;;;;3.00;1.80;;;;;;;20.02;40.95;92963.09;1785576;80;21221;-84
2021/05/27 10:14:07;;;;;;;5.20;1.60;;;;;;;20.10;40.14;92958.00;1785938;80;21642;-87
2021/05/27 10:16:37;;;;;;;1.67;1.57;;;;;;;20.17;39.46;92949.38;1785168;80;21203;-84
2021/05/27 10:19:05;;;;;;;5.60;1.80;;;;;;;20.23;41.56;92956.39;1785143;80;21108;-85
2021/05/27 10:21:32;;;;;;;1.75;1.50;;;;;;;20.21;44.01;92952.73;1786969;80;21081;-85
2021/05/27 10:23:59;;;;;;;2.45;2.10;;;;;;;20.10;44.30;92949.09;1789401;80;21451;-84
2021/05/27 10:26:26;;;;;;;9.28;2.62;;;;;;;20.04;43.47;92949.58;1758435;81;21061;-83
2021/05/27 10:28:54;;;;;;;3.40;1.98;;;;;;;19.98;45.04;92953.45;1762552;77;21024;-83
2021/05/27 10:31:22;;;;;;;2.83;1.60;;;;;;;19.89;44.53;92943.97;1807008;79;21060;-81
2021/05/27 10:33:49;;;;;;;2.10;1.90;;;;;;;19.83;42.09;92945.84;1802209;79;21396;-81
2021/05/27 10:36:17;;;;;;;2.20;2.00;;;;;;;19.79;44.81;92945.25;1727033;80;21116;-81
2021/05/27 10:38:50;;;;;;;2.67;1.85;;;;;;;19.82;47.97;92948.46;1789734;78;21111;-80
2021/05/27 10:41:31;;;;;;;2.05;1.57;;;;;;;19.91;47.66;92952.41;1766398;78;21176;-82
2021/05/27 10:44:07;;;;;;;5.87;2.20;;;;;;;19.92;47.37;92948.41;1811490;78;21061;-79
2021/05/27 10:46:49;;;;;;;3.85;1.90;;;;;;;19.95;47.49;92947.48;1793895;79;21155;-78
2021/05/27 10:49:45;;;;;;;2.37;1.82;;;;;;;20.00;47.89;92949.59;1762407;80;21600;-81
2021/05/27 10:52:17;;;;;;;4.53;2.20;;;;;;;20.08;48.76;92950.20;1832786;77;21628;-80
2021/05/27 10:54:45;;;;;;;5.50;2.33;;;;;;;20.09;47.10;92943.44;1765058;81;21710;-82
2021/05/27 10:57:11;;;;;;;1.70;1.60;;;;;;;19.95;48.10;92944.73;1781596;78;21336;-79
2021/05/27 10:59:38;;;;;;;1.90;1.80;;;;;;;19.86;47.46;92947.67;1779115;78;21661;-80
2021/05/27 11:02:07;;;;;;;3.72;2.25;;;;;;;19.81;47.07;92944.77;1835094;77;21193;-80
2021/05/27 11:04:35;;;;;;;3.05;2.25;;;;;;;19.79;48.27;92955.52;1818624;76;21072;-82
2021/05/27 11:07:18;;;;;;;4.20;1.85;;;;;;;19.72;48.13;92955.23;1874627;76;21107;-81
2021/05/27 11:09:47;;;;;;;3.05;1.85;;;;;;;19.55;48.85;92954.78;1839941;76;21092;-77
2021/05/27 11:12:18;;;;;;;2.33;2.08;;;;;;;19.43;49.11;92946.70;1840109;77;21087;-78
2021/05/27 11:14:56;;;;;;;7.58;2.50;;;;;;;19.30;49.86;92955.92;1840806;77;20928;-78
2021/05/27 11:17:25;;;;;;;3.05;2.20;;;;;;;19.17;50.53;92952.55;1839890;77;21059;-79
2021/05/27 11:20:03;;;;;;;2.17;1.92;;;;;;;18.99;50.44;92949.81;1809585;77;21444;-77
2021/05/27 11:25:15;;;;;;;4.10;2.20;;;;;;;18.70;51.75;92944.14;1818342;78;21045;-80
2021/05/27 11:27:54;;;;;;;5.15;2.85;;;;;;;18.63;52.80;92949.33;1834102;77;21307;-77
2021/05/27 11:30:43;;;;;;;4.12;2.50;;;;;;;18.59;52.09;92958.34;1864378;76;21027;-81
2021/05/27 11:33:31;;;;;;;3.40;3.10;;;;;;;18.47;52.90;92947.45;1819906;76;21127;-79
2021/05/27 11:36:07;;;;;;;3.55;2.33;;;;;;;18.36;53.22;92954.80;1808440;78;21118;-79
2021/05/27 11:38:36;;;;;;;5.67;2.60;;;;;;;18.27;52.85;92956.91;1799414;78;21127;-76
2021/05/27 11:41:12;;;;;;;4.45;2.35;;;;;;;18.19;53.60;92954.30;1782626;77;21420;-81
2021/05/27 11:43:46;;;;;;;2.87;1.80;;;;;;;18.12;54.38;92951.83;1818581;76;21649;-75
2021/05/27 11:46:29;;;;;;;3.27;2.42;;;;;;;18.06;54.46;92955.80;1870060;76;21083;-79
2021/05/27 11:48:57;;;;;;;3.85;2.47;;;;;;;18.00;54.50;92956.84;1885835;74;21631;-76
2021/05/27 11:51:36;;;;;;;3.55;2.55;;;;;;;17.96;54.06;92950.86;1884578;74;21432;-80
2021/05/27 11:54:09;;;;;;;3.92;2.40;;;;;;;17.95;54.49;92941.70;1859926;75;21072;-79
2021/05/27 11:56:49;;;;;;;4.72;2.30;;;;;;;17.94;54.91;92939.56;1840193;77;21052;-78
2021/05/27 11:59:25;;;;;;;3.58;2.30;;;;;;;17.94;54.96;92931.89;1835410;77;22231;-80
2021/05/27 12:01:57;;;;;;;3.20;2.10;;;;;;;17.94;55.28;92935.44;1835725;75;21084;-79
2021/05/27 12:04:23;;;;;;;3.65;2.30;;;;;;;17.95;55.20;92931.45;1875998;76;21122;-82
2021/05/27 12:07:03;;;;;;;3.33;2.83;;;;;;;18.00;55.80;92939.72;1839952;76;21729;-81